createdAt,value
2018-06-16T00:01:21.187Z,16.21
2018-06-16T00:03:53.122Z,16.18
2018-06-16T00:06:24.229Z,16.13
2018-06-16T00:08:54.955Z,16.04
2018-06-16T00:11:25.588Z,16.02
2018-06-16T00:13:57.684Z,15.97
2018-06-16T00:16:29.735Z,15.95
2018-06-16T00:19:02.328Z,15.90
2018-06-16T00:21:34.032Z,15.87
2018-06-16T00:24:05.105Z,15.86
2018-06-16T00:26:36.325Z,15.88
2018-06-16T00:29:07.341Z,15.88
2018-06-16T00:31:38.703Z,15.87
2018-06-16T00:34:10.610Z,15.86
2018-06-16T00:36:41.692Z,15.86
2018-06-16T00:39:13.445Z,15.87
2018-06-16T00:41:44.373Z,15.82
2018-06-16T00:44:16.469Z,15.78
2018-06-16T00:46:47.677Z,15.72
2018-06-16T00:49:18.740Z,15.67
2018-06-16T00:51:49.847Z,15.63
2018-06-16T00:54:21.035Z,15.55
2018-06-16T00:57:08.342Z,15.43
2018-06-16T00:59:39.545Z,15.37
2018-06-16T01:02:10.819Z,15.29
2018-06-16T01:04:42.913Z,15.27
2018-06-16T01:07:15.195Z,15.26
2018-06-16T01:09:47.176Z,15.23
2018-06-16T01:12:18.498Z,15.17
2018-06-16T01:14:49.710Z,15.15
2018-06-16T01:17:20.632Z,15.10
2018-06-16T01:19:52.262Z,15.08
2018-06-16T01:22:24.293Z,15.06
2018-06-16T01:24:55.265Z,15.05
2018-06-16T01:27:26.515Z,15.09
2018-06-16T01:29:57.815Z,15.11
2018-06-16T01:32:29.371Z,15.09
2018-06-16T01:35:00.672Z,15.02
2018-06-16T01:37:31.927Z,14.99
2018-06-16T01:40:02.908Z,14.93
2018-06-16T01:42:34.521Z,14.83
2018-06-16T01:45:05.739Z,14.75
2018-06-16T01:47:36.843Z,14.76
2018-06-16T01:50:08.748Z,14.74
2018-06-16T01:52:39.794Z,14.67
2018-06-16T01:55:10.868Z,14.59
2018-06-16T01:57:42.582Z,14.52
2018-06-16T02:00:13.505Z,14.45
2018-06-16T02:02:44.539Z,14.40
2018-06-16T02:05:15.675Z,14.41
2018-06-16T02:07:48.622Z,14.36
2018-06-16T02:10:20.253Z,14.38
2018-06-16T02:12:51.478Z,14.42
2018-06-16T02:15:22.420Z,14.47
2018-06-16T02:17:53.585Z,14.45
2018-06-16T02:20:24.771Z,14.40
2018-06-16T02:22:55.244Z,14.44
2018-06-16T02:25:26.832Z,14.46
2018-06-16T02:27:57.963Z,14.49
2018-06-16T02:30:29.533Z,14.46
2018-06-16T02:33:01.693Z,14.42
2018-06-16T02:35:33.868Z,14.37
2018-06-16T02:38:05.405Z,14.29
2018-06-16T02:40:36.449Z,14.28
2018-06-16T02:43:07.792Z,14.28
2018-06-16T02:45:40.164Z,14.25
2018-06-16T02:48:10.665Z,14.19
2018-06-16T02:50:42.385Z,14.15
2018-06-16T02:53:13.770Z,14.13
2018-06-16T02:55:44.882Z,14.13
2018-06-16T02:58:15.954Z,14.14
2018-06-16T03:00:46.998Z,14.09
2018-06-16T03:03:18.205Z,14.07
2018-06-16T03:05:49.304Z,14.07
2018-06-16T03:08:21.321Z,14.07
2018-06-16T03:10:52.323Z,14.05
2018-06-16T03:13:23.673Z,14.04
2018-06-16T03:15:55.286Z,13.97
2018-06-16T03:18:26.688Z,13.90
2018-06-16T03:20:57.806Z,13.86
2018-06-16T03:23:29.058Z,13.79
2018-06-16T03:26:00.453Z,13.74
2018-06-16T03:28:32.023Z,13.70
2018-06-16T03:31:02.966Z,13.68
2018-06-16T03:33:34.708Z,13.73
2018-06-16T03:36:05.868Z,13.81
2018-06-16T03:38:37.016Z,13.93
2018-06-16T03:41:08.178Z,14.04
2018-06-16T03:43:39.385Z,14.15
2018-06-16T03:46:10.804Z,14.20
2018-06-16T03:48:42.780Z,14.26
2018-06-16T03:51:13.725Z,14.28
2018-06-16T03:53:45.025Z,14.31
2018-06-16T03:56:16.548Z,14.34
2018-06-16T03:58:48.115Z,14.43
2018-06-16T04:01:19.341Z,14.59
2018-06-16T04:03:50.000Z,14.65
2018-06-16T04:06:21.065Z,14.67
2018-06-16T04:08:52.991Z,14.72
2018-06-16T04:11:24.251Z,14.72
2018-06-16T04:13:56.832Z,14.73
2018-06-16T04:16:28.085Z,14.77
2018-06-16T04:18:59.796Z,14.78
2018-06-16T04:21:31.261Z,14.82
2018-06-16T04:24:02.443Z,14.88
2018-06-16T04:26:33.880Z,14.88
2018-06-16T04:29:05.151Z,14.94
2018-06-16T04:31:36.489Z,14.96
2018-06-16T04:34:08.605Z,14.99
2018-06-16T04:36:39.871Z,15.05
2018-06-16T04:39:11.852Z,15.16
2018-06-16T04:41:42.998Z,15.30
2018-06-16T04:44:14.030Z,15.43
2018-06-16T04:46:46.246Z,15.59
2018-06-16T04:49:17.387Z,15.76
2018-06-16T04:51:48.654Z,15.88
2018-06-16T04:54:20.011Z,16.06
2018-06-16T04:56:50.981Z,16.21
2018-06-16T04:59:22.163Z,16.33
2018-06-16T05:01:53.185Z,16.47
2018-06-16T05:04:24.722Z,16.65
2018-06-16T05:06:55.751Z,16.77
2018-06-16T05:09:27.822Z,16.92
2018-06-16T05:11:59.146Z,17.09
2018-06-16T05:14:30.622Z,17.24
2018-06-16T05:17:01.960Z,17.43
2018-06-16T05:19:33.734Z,17.59
2018-06-16T05:22:05.694Z,17.77
2018-06-16T05:24:36.800Z,17.96
2018-06-16T05:27:08.508Z,18.18
2018-06-16T05:29:39.698Z,18.25
2018-06-16T05:32:11.003Z,18.42
2018-06-16T05:34:43.111Z,18.55
2018-06-16T05:37:15.180Z,18.67
2018-06-16T05:39:45.765Z,18.78
2018-06-16T05:42:16.886Z,18.94
2018-06-16T05:44:49.936Z,19.14
2018-06-16T05:47:21.188Z,19.25
2018-06-16T05:49:52.286Z,19.47
2018-06-16T05:52:24.784Z,19.67
2018-06-16T05:54:57.105Z,19.81
2018-06-16T05:57:28.605Z,20.10
2018-06-16T05:59:59.853Z,20.23
2018-06-16T06:02:31.644Z,20.42
2018-06-16T06:05:02.955Z,20.64
2018-06-16T06:07:34.551Z,20.87
2018-06-16T06:10:06.279Z,21.13
2018-06-16T06:12:38.245Z,21.40
2018-06-16T06:15:10.027Z,21.56
2018-06-16T06:17:41.296Z,21.69
2018-06-16T06:20:11.967Z,21.98
2018-06-16T06:22:43.658Z,22.92
2018-06-16T06:25:16.063Z,24.14
2018-06-16T06:27:47.225Z,24.96
2018-06-16T06:30:18.247Z,25.63
2018-06-16T06:32:49.629Z,26.24
2018-06-16T06:35:20.629Z,26.64
2018-06-16T06:37:51.780Z,26.86
2018-06-16T06:40:22.499Z,27.23
2018-06-16T06:42:54.316Z,27.61
2018-06-16T06:45:26.188Z,27.74
2018-06-16T06:47:56.604Z,27.80
2018-06-16T06:50:28.462Z,28.06
2018-06-16T06:52:59.795Z,28.08
2018-06-16T06:55:32.429Z,28.27
2018-06-16T06:58:04.340Z,28.10
2018-06-16T07:00:36.052Z,28.48
2018-06-16T07:03:06.891Z,28.61
2018-06-16T07:05:38.206Z,28.97
2018-06-16T07:08:09.412Z,28.80
2018-06-16T07:10:40.494Z,29.13
2018-06-16T07:13:12.207Z,29.26
2018-06-16T07:15:44.384Z,28.41
2018-06-16T07:18:16.056Z,29.33
2018-06-16T07:20:48.096Z,29.15
2018-06-16T07:23:19.869Z,29.10
2018-06-16T07:25:52.215Z,29.27
2018-06-16T07:28:23.374Z,29.54
2018-06-16T07:30:55.209Z,28.53
2018-06-16T07:33:27.707Z,28.87
2018-06-16T07:35:59.093Z,29.34
2018-06-16T07:38:31.989Z,28.61
2018-06-16T07:41:03.373Z,28.63
2018-06-16T07:43:34.728Z,28.67
2018-06-16T07:46:07.082Z,29.03
2018-06-16T07:48:39.656Z,29.36
2018-06-16T07:51:11.358Z,30.42
2018-06-16T07:53:43.720Z,31.07
2018-06-16T07:56:15.094Z,30.56
2018-06-16T07:58:46.335Z,29.40
2018-06-16T08:01:17.574Z,29.28
2018-06-16T08:03:49.183Z,29.06
2018-06-16T08:06:20.859Z,30.04
2018-06-16T08:08:53.183Z,30.01
2018-06-16T08:11:25.151Z,30.73
2018-06-16T08:13:56.611Z,30.43
2018-06-16T08:16:28.674Z,30.83
2018-06-16T08:18:59.732Z,31.49
2018-06-16T08:21:31.369Z,30.80
2018-06-16T08:24:02.490Z,30.59
2018-06-16T08:26:33.995Z,31.32
2018-06-16T08:29:05.718Z,31.73
2018-06-16T08:31:38.422Z,31.89
2018-06-16T08:34:10.492Z,31.88
2018-06-16T08:36:41.700Z,31.50
2018-06-16T08:39:13.456Z,32.40
2018-06-16T08:41:46.122Z,32.91
2018-06-16T08:44:17.909Z,33.19
2018-06-16T08:46:49.134Z,32.16
2018-06-16T08:49:20.367Z,31.23
2018-06-16T08:51:51.550Z,31.05
2018-06-16T08:54:23.834Z,31.43
2018-06-16T08:56:55.971Z,31.72
2018-06-16T08:59:26.979Z,32.10
2018-06-16T09:01:59.259Z,32.11
2018-06-16T09:04:31.526Z,31.43
2018-06-16T09:07:05.247Z,31.81
2018-06-16T09:09:37.612Z,32.36
2018-06-16T09:12:09.239Z,32.77
2018-06-16T09:14:41.951Z,32.97
2018-06-16T09:17:17.064Z,33.28
2018-06-16T09:19:48.686Z,34.01
2018-06-16T09:22:20.108Z,34.64
2018-06-16T09:24:53.198Z,34.21
2018-06-16T09:27:29.966Z,34.63
2018-06-16T09:30:00.968Z,34.52
2018-06-16T09:32:31.994Z,34.47
2018-06-16T09:35:04.052Z,34.59
2018-06-16T09:37:35.803Z,34.59
2018-06-16T09:40:08.006Z,35.12
2018-06-16T09:42:39.086Z,35.34
2018-06-16T09:45:10.540Z,35.36
2018-06-16T09:47:42.930Z,35.17
2018-06-16T09:50:15.226Z,34.10
2018-06-16T09:52:46.839Z,33.63
2018-06-16T09:55:19.456Z,34.33
2018-06-16T09:57:51.141Z,35.07
2018-06-16T10:00:24.379Z,35.50
2018-06-16T10:02:56.526Z,35.75
2018-06-16T10:05:28.636Z,35.80
2018-06-16T10:07:59.809Z,36.15
2018-06-16T10:10:31.137Z,35.29
2018-06-16T10:13:02.315Z,35.06
2018-06-16T10:15:34.267Z,35.42
2018-06-16T10:18:05.791Z,35.55
2018-06-16T10:20:37.861Z,34.93
2018-06-16T10:23:09.960Z,35.09
2018-06-16T10:25:41.409Z,35.84
2018-06-16T10:28:13.433Z,35.35
2018-06-16T10:30:44.973Z,33.44
2018-06-16T10:33:22.747Z,32.20
2018-06-16T10:35:54.807Z,32.70
2018-06-16T10:38:27.118Z,32.20
2018-06-16T10:40:58.849Z,31.27
2018-06-16T10:43:31.124Z,30.62
2018-06-16T10:46:02.451Z,30.47
2018-06-16T10:48:33.261Z,30.32
2018-06-16T10:51:04.361Z,30.12
2018-06-16T10:53:35.804Z,29.76
2018-06-16T10:56:08.654Z,30.64
2018-06-16T10:58:40.219Z,32.29
2018-06-16T11:01:11.602Z,33.34
2018-06-16T11:03:43.080Z,32.60
2018-06-16T11:06:14.274Z,31.82
2018-06-16T11:08:46.465Z,31.02
2018-06-16T11:11:17.912Z,30.63
2018-06-16T11:13:49.943Z,30.35
2018-06-16T11:16:21.560Z,30.27
2018-06-16T11:18:53.353Z,31.20
2018-06-16T11:21:24.708Z,32.36
2018-06-16T11:23:56.029Z,33.64
2018-06-16T11:26:27.341Z,34.36
2018-06-16T11:28:59.475Z,34.64
2018-06-16T11:31:32.481Z,34.93
2018-06-16T11:34:04.391Z,35.32
2018-06-16T11:36:35.675Z,34.10
2018-06-16T11:39:13.911Z,33.02
2018-06-16T11:41:45.570Z,32.25
2018-06-16T11:44:16.957Z,31.73
2018-06-16T11:46:49.961Z,31.29
2018-06-16T11:49:21.394Z,32.35
2018-06-16T11:51:57.529Z,33.23
2018-06-16T11:54:29.072Z,34.26
2018-06-16T11:57:00.593Z,34.15
2018-06-16T11:59:32.111Z,33.50
2018-06-16T12:02:04.482Z,32.71
2018-06-16T12:04:36.301Z,33.00
2018-06-16T12:07:07.050Z,33.60
2018-06-16T12:09:38.192Z,33.68
2018-06-16T12:12:09.958Z,32.81
2018-06-16T12:14:41.203Z,33.84
2018-06-16T12:17:12.516Z,34.06
2018-06-16T12:19:44.863Z,34.65
2018-06-16T12:22:16.974Z,35.49
2018-06-16T12:24:48.555Z,35.42
2018-06-16T12:27:20.270Z,35.82
2018-06-16T12:29:51.462Z,36.19
2018-06-16T12:32:22.561Z,35.31
2018-06-16T12:34:53.860Z,35.44
2018-06-16T12:37:25.854Z,34.98
2018-06-16T12:40:00.633Z,34.20
2018-06-16T12:42:32.080Z,33.12
2018-06-16T12:45:04.716Z,32.96
2018-06-16T12:47:36.339Z,33.49
2018-06-16T12:50:09.935Z,33.57
2018-06-16T12:52:43.309Z,33.79
2018-06-16T12:55:15.578Z,34.55
2018-06-16T12:57:48.970Z,35.15
2018-06-16T13:00:22.088Z,35.39
2018-06-16T13:02:56.093Z,35.44
2018-06-16T13:05:27.793Z,35.20
2018-06-16T13:08:00.404Z,35.03
2018-06-16T13:10:40.366Z,34.38
2018-06-16T13:13:12.923Z,33.61
2018-06-16T13:15:44.441Z,34.20
2018-06-16T13:18:23.628Z,34.23
2018-06-16T13:20:55.095Z,34.50
2018-06-16T13:23:27.329Z,34.25
2018-06-16T13:25:59.380Z,34.28
2018-06-16T13:28:31.445Z,34.62
2018-06-16T13:31:03.443Z,34.43
2018-06-16T13:33:37.025Z,34.05
2018-06-16T13:36:11.174Z,34.01
2018-06-16T13:38:42.309Z,33.94
2018-06-16T13:41:12.907Z,33.89
2018-06-16T13:43:44.584Z,33.99
2018-06-16T13:46:16.851Z,34.07
2018-06-16T13:48:49.522Z,34.35
2018-06-16T13:51:21.536Z,34.59
2018-06-16T13:53:53.042Z,34.36
2018-06-16T13:56:25.154Z,34.13
2018-06-16T13:58:56.100Z,34.05
2018-06-16T14:01:27.729Z,33.94
2018-06-16T14:03:59.054Z,33.84
2018-06-16T14:06:31.775Z,33.42
2018-06-16T14:09:05.378Z,33.24
2018-06-16T14:11:40.284Z,32.86
2018-06-16T14:14:13.252Z,32.76
2018-06-16T14:16:48.766Z,32.51
2018-06-16T14:19:25.895Z,32.83
2018-06-16T14:22:00.232Z,32.95
2018-06-16T14:24:31.924Z,33.00
2018-06-16T14:27:06.520Z,33.15
2018-06-16T14:29:46.199Z,33.20
2018-06-16T14:32:19.394Z,33.10
2018-06-16T14:34:50.972Z,32.79
2018-06-16T14:37:22.284Z,33.07
2018-06-16T14:39:54.265Z,33.09
2018-06-16T14:42:26.497Z,33.08
2018-06-16T14:44:58.991Z,32.72
2018-06-16T14:47:32.054Z,32.44
2018-06-16T14:50:08.196Z,31.80
2018-06-16T14:52:40.781Z,31.03
2018-06-16T14:55:12.529Z,30.63
2018-06-16T14:57:43.668Z,30.23
2018-06-16T15:00:16.547Z,30.03
2018-06-16T15:02:49.012Z,30.51
2018-06-16T15:05:22.361Z,30.77
2018-06-16T15:07:54.552Z,30.78
2018-06-16T15:10:26.444Z,30.81
2018-06-16T15:12:57.936Z,30.71
2018-06-16T15:15:29.411Z,30.44
2018-06-16T15:18:03.360Z,30.40
2018-06-16T15:20:40.989Z,30.61
2018-06-16T15:23:14.880Z,30.71
2018-06-16T15:25:48.408Z,30.73
2018-06-16T15:28:23.104Z,30.21
2018-06-16T15:30:54.673Z,30.26
2018-06-16T15:33:27.061Z,30.17
2018-06-16T15:36:00.765Z,30.33
2018-06-16T15:38:33.024Z,30.40
2018-06-16T15:41:05.728Z,30.30
2018-06-16T15:43:37.417Z,29.91
2018-06-16T15:46:09.728Z,29.87
2018-06-16T15:49:00.152Z,29.99
2018-06-16T15:51:34.036Z,29.99
2018-06-16T15:54:11.006Z,29.92
2018-06-16T15:56:42.780Z,30.01
2018-06-16T15:59:15.048Z,29.98
2018-06-16T16:01:46.690Z,29.88
2018-06-16T16:04:18.590Z,29.87
2018-06-16T16:06:50.407Z,29.91
2018-06-16T16:09:21.567Z,29.89
2018-06-16T16:11:54.455Z,29.83
2018-06-16T16:14:27.102Z,29.76
2018-06-16T16:16:59.185Z,29.81
2018-06-16T16:19:30.581Z,29.80
2018-06-16T16:22:03.415Z,29.71
2018-06-16T16:24:35.016Z,29.59
2018-06-16T16:27:09.588Z,29.34
2018-06-16T16:29:43.008Z,29.31
2018-06-16T16:32:15.924Z,29.26
2018-06-16T16:34:47.646Z,29.22
2018-06-16T16:37:18.910Z,29.19
2018-06-16T16:39:51.015Z,29.06
2018-06-16T16:42:22.764Z,28.98
2018-06-16T16:44:54.963Z,28.92
2018-06-16T16:47:26.525Z,28.86
2018-06-16T16:49:59.880Z,28.76
2018-06-16T16:52:31.098Z,28.78
2018-06-16T16:55:01.842Z,28.74
2018-06-16T16:57:39.743Z,28.78
2018-06-16T17:00:11.682Z,28.81
2018-06-16T17:02:43.800Z,28.70
2018-06-16T17:05:19.701Z,28.62
2018-06-16T17:07:52.630Z,28.58
2018-06-16T17:10:24.576Z,28.49
2018-06-16T17:12:56.612Z,28.41
2018-06-16T17:15:27.785Z,28.38
2018-06-16T17:17:58.939Z,28.25
2018-06-16T17:20:30.543Z,28.12
2018-06-16T17:23:03.107Z,28.03
2018-06-16T17:25:35.153Z,27.97
2018-06-16T17:28:07.706Z,27.98
2018-06-16T17:30:39.053Z,27.94
2018-06-16T17:33:10.128Z,27.77
2018-06-16T17:35:42.247Z,27.73
2018-06-16T17:38:13.419Z,27.68
2018-06-16T17:40:45.175Z,27.62
2018-06-16T17:43:17.298Z,27.48
2018-06-16T17:45:48.748Z,27.39
2018-06-16T17:48:19.755Z,27.29
2018-06-16T17:50:50.683Z,27.21
2018-06-16T17:53:22.813Z,27.17
2018-06-16T17:55:56.323Z,27.03
2018-06-16T17:58:28.157Z,26.92
2018-06-16T18:01:00.345Z,26.82
2018-06-16T18:03:32.894Z,26.72
2018-06-16T18:06:05.191Z,26.62
2018-06-16T18:08:37.291Z,26.48
2018-06-16T18:11:08.430Z,26.38
2018-06-16T18:13:39.853Z,26.27
2018-06-16T18:16:11.490Z,26.20
2018-06-16T18:18:43.556Z,26.08
2018-06-16T18:21:14.882Z,25.99
2018-06-16T18:23:45.982Z,25.87
2018-06-16T18:26:17.150Z,25.74
2018-06-16T18:28:48.426Z,25.67
2018-06-16T18:31:20.292Z,25.52
2018-06-16T18:33:52.098Z,25.39
2018-06-16T18:36:24.269Z,25.28
2018-06-16T18:38:55.712Z,25.14
2018-06-16T18:41:28.360Z,25.01
2018-06-16T18:44:01.097Z,24.91
2018-06-16T18:46:32.565Z,24.79
2018-06-16T18:49:03.610Z,24.71
2018-06-16T18:51:36.750Z,24.61
2018-06-16T18:54:08.406Z,24.54
2018-06-16T18:56:40.283Z,24.45
2018-06-16T18:59:11.781Z,24.33
2018-06-16T19:01:42.762Z,24.27
2018-06-16T19:04:15.576Z,24.22
2018-06-16T19:06:48.911Z,24.16
2018-06-16T19:09:22.028Z,24.08
2018-06-16T19:11:53.986Z,24.06
2018-06-16T19:14:25.525Z,24.03
2018-06-16T19:16:57.049Z,24.04
2018-06-16T19:19:28.479Z,24.00
2018-06-16T19:22:00.350Z,23.94
2018-06-16T19:24:32.661Z,23.90
2018-06-16T19:27:04.450Z,23.86
2018-06-16T19:29:36.314Z,23.82
2018-06-16T19:32:08.894Z,23.80
2018-06-16T19:34:41.220Z,23.78
2018-06-16T19:37:13.387Z,23.74
2018-06-16T19:39:45.415Z,23.77
2018-06-16T19:42:16.720Z,23.75
2018-06-16T19:44:48.904Z,23.70
2018-06-16T19:47:21.334Z,23.64
2018-06-16T19:49:56.447Z,23.58
2018-06-16T19:52:29.063Z,23.42
2018-06-16T19:55:00.344Z,23.16
2018-06-16T19:57:32.348Z,22.95
2018-06-16T20:00:04.827Z,22.74
2018-06-16T20:02:40.630Z,22.50
2018-06-16T20:05:12.784Z,22.28
2018-06-16T20:07:46.321Z,22.15
2018-06-16T20:10:18.901Z,22.01
2018-06-16T20:12:52.326Z,21.73
2018-06-16T20:15:26.974Z,21.58
2018-06-16T20:18:01.402Z,21.44
2018-06-16T20:20:34.071Z,21.28
2018-06-16T20:23:05.930Z,21.17
2018-06-16T20:25:40.762Z,21.10
2018-06-16T20:28:13.070Z,21.06
2018-06-16T20:30:45.845Z,21.06
2018-06-16T20:33:17.689Z,21.01
2018-06-16T20:35:49.592Z,20.96
2018-06-16T20:38:22.135Z,20.87
2018-06-16T20:40:55.135Z,20.82
2018-06-16T20:43:27.942Z,20.75
2018-06-16T20:45:59.744Z,20.47
2018-06-16T20:48:31.031Z,20.35
2018-06-16T20:51:03.185Z,20.14
2018-06-16T20:53:37.047Z,20.04
2018-06-16T20:56:10.400Z,19.97
2018-06-16T20:58:42.295Z,19.88
2018-06-16T21:01:15.798Z,19.82
2018-06-16T21:03:48.616Z,19.77
2018-06-16T21:06:21.422Z,19.72
2018-06-16T21:08:53.304Z,19.75
2018-06-16T21:11:24.385Z,19.74
2018-06-16T21:13:55.625Z,19.71
2018-06-16T21:16:27.976Z,19.61
2018-06-16T21:18:59.773Z,19.62
2018-06-16T21:21:34.284Z,19.53
2018-06-16T21:24:05.931Z,19.49
2018-06-16T21:26:37.224Z,19.48
2018-06-16T21:29:09.979Z,19.42
2018-06-16T21:31:41.817Z,19.30
2018-06-16T21:34:15.552Z,19.18
2018-06-16T21:36:47.341Z,19.08
2018-06-16T21:39:18.708Z,19.00
2018-06-16T21:41:49.894Z,18.96
2018-06-16T21:44:21.813Z,18.96
2018-06-16T21:46:53.966Z,18.94
2018-06-16T21:49:25.478Z,18.92
2018-06-16T21:51:56.691Z,18.86
2018-06-16T21:54:28.977Z,18.78
2018-06-16T21:57:03.325Z,18.72
2018-06-16T21:59:34.912Z,18.66
2018-06-16T22:02:09.532Z,18.62
2018-06-16T22:04:41.283Z,18.63
2018-06-16T22:07:12.787Z,18.59
2018-06-16T22:09:49.369Z,18.53
2018-06-16T22:12:22.063Z,18.41
2018-06-16T22:14:54.630Z,18.32
2018-06-16T22:17:26.109Z,18.26
2018-06-16T22:19:57.486Z,18.17
2018-06-16T22:22:29.551Z,18.10
2018-06-16T22:25:01.132Z,18.12
2018-06-16T22:27:32.299Z,18.06
2018-06-16T22:30:04.718Z,18.00
2018-06-16T22:32:36.053Z,17.98
2018-06-16T22:35:07.139Z,17.90
2018-06-16T22:37:37.878Z,17.72
2018-06-16T22:40:09.163Z,17.53
2018-06-16T22:42:40.449Z,17.41
2018-06-16T22:45:11.804Z,17.34
2018-06-16T22:47:44.198Z,17.31
2018-06-16T22:50:15.364Z,17.30
2018-06-16T22:52:46.572Z,17.27
2018-06-16T22:55:17.742Z,17.29
2018-06-16T22:57:49.442Z,17.27
2018-06-16T23:00:29.436Z,17.21
2018-06-16T23:03:01.172Z,17.17
2018-06-16T23:05:32.679Z,17.19
2018-06-16T23:08:04.297Z,17.11
2018-06-16T23:10:36.260Z,17.04
2018-06-16T23:13:07.472Z,16.98
2018-06-16T23:15:39.353Z,16.94
2018-06-16T23:18:12.579Z,16.94
2018-06-16T23:20:44.397Z,16.91
2018-06-16T23:23:15.869Z,16.88
2018-06-16T23:25:47.474Z,16.83
2018-06-16T23:28:18.745Z,16.81
2018-06-16T23:30:50.391Z,16.78
2018-06-16T23:33:21.719Z,16.75
2018-06-16T23:35:53.701Z,16.72
2018-06-16T23:38:24.393Z,16.70
2018-06-16T23:40:56.886Z,16.67
2018-06-16T23:43:28.069Z,16.65
2018-06-16T23:45:59.432Z,16.58
2018-06-16T23:48:30.770Z,16.51
2018-06-16T23:51:03.682Z,16.43
2018-06-16T23:53:35.530Z,16.40
2018-06-16T23:56:07.427Z,16.41
2018-06-16T23:58:38.563Z,16.42
